Time;durP1;ratioP1;P1;durP2;ratioP2;P2;SDS_P1;SDS_P2;PMS_P1;PMS_P2;Temp;Humidity;BMP_temperature;BMP_pressure;BME280_temperature;BME280_humidity;BME280_pressure;Samples;Min_cycle;Max_cycle;Signal;HPM_P1;HPM_P2
2021/07/04 00:00:16;;;;;;;13.50;12.10;;;15.50;1.40;;;;;;647433;212;31621;-73
2021/07/04 00:02:57;;;;;;;14.50;13.10;;;15.50;1.40;;;;;;649307;216;31624;-73
2021/07/04 00:05:39;;;;;;;13.90;12.60;;;15.60;1.40;;;;;;647385;216;31625;-72
2021/07/04 00:08:20;;;;;;;14.52;13.00;;;15.50;1.40;;;;;;649022;212;31659;-72
2021/07/04 00:11:01;;;;;;;14.57;13.07;;;15.60;1.40;;;;;;650066;216;32032;-73
2021/07/04 00:13:42;;;;;;;14.97;13.47;;;15.50;1.40;;;;;;646701;216;31975;-72
2021/07/04 00:16:23;;;;;;;14.60;13.10;;;15.60;1.40;;;;;;646423;216;31616;-72
2021/07/04 00:19:04;;;;;;;14.40;13.00;;;15.60;1.40;;;;;;646635;212;42238;-72
2021/07/04 00:21:45;;;;;;;12.27;11.17;;;15.60;1.40;;;;;;651105;212;31588;-72
2021/07/04 00:24:26;;;;;;;11.70;10.50;;;15.50;1.40;;;;;;647879;216;31594;-72
2021/07/04 00:27:10;;;;;;;11.37;10.30;;;15.50;1.40;;;;;;648918;216;31684;-72
2021/07/04 00:29:51;;;;;;;10.75;9.75;;;15.40;1.40;;;;;;647747;212;31662;-72
2021/07/04 00:32:32;;;;;;;12.20;10.90;;;15.40;1.40;;;;;;648346;216;31902;-72
2021/07/04 00:35:52;;;;;;;12.25;11.05;;;15.50;1.40;;;17.19;100.00;95233.19;619969;226;31995;-72
2021/07/04 00:38:35;;;;;;;12.02;10.93;;;15.50;1.40;;;17.22;100.00;95233.89;648300;216;31561;-73
2021/07/04 00:41:15;;;;;;;11.38;10.20;;;15.50;1.40;;;17.15;100.00;95233.83;646472;213;31593;-72
2021/07/04 00:44:00;;;;;;;10.80;9.80;;;15.50;1.40;;;17.09;100.00;95234.48;648221;216;32191;-73
2021/07/04 00:46:41;;;;;;;9.70;8.90;;;15.40;1.40;;;17.07;100.00;95233.45;645582;212;31722;-73
2021/07/04 00:49:23;;;;;;;9.55;8.75;;;15.40;1.40;;;16.98;100.00;95231.37;648334;216;31583;-72
2021/07/04 00:52:05;;;;;;;9.40;8.60;;;15.40;1.40;;;17.05;100.00;95227.08;646862;212;32056;-72
2021/07/04 00:54:47;;;;;;;9.40;8.60;;;15.40;1.40;;;17.00;100.00;95225.38;645752;212;31554;-72
2021/07/04 00:57:28;;;;;;;9.10;8.25;;;15.40;1.40;;;16.92;100.00;95223.67;648764;212;31600;-72
2021/07/04 01:00:11;;;;;;;9.35;8.55;;;15.40;1.40;;;16.94;100.00;95222.69;647035;216;31749;-73
2021/07/04 01:02:52;;;;;;;9.18;8.38;;;15.30;1.40;;;16.94;100.00;95215.91;646188;212;31644;-72
2021/07/04 01:05:34;;;;;;;9.80;8.80;;;15.30;1.40;;;17.04;100.00;95216.88;647276;212;31626;-72
2021/07/04 01:08:16;;;;;;;8.90;8.20;;;15.30;1.40;;;17.06;100.00;95214.22;644693;216;31747;-72
2021/07/04 01:10:58;;;;;;;9.88;8.90;;;15.30;1.40;;;17.12;100.00;95209.21;649774;216;31556;-72
2021/07/04 01:13:39;;;;;;;10.70;9.70;;;15.30;1.40;;;17.12;100.00;95209.78;651142;216;31688;-72
2021/07/04 01:16:21;;;;;;;11.02;10.02;;;15.30;1.40;;;17.09;100.00;95211.11;649382;216;31701;-71
2021/07/04 01:19:03;;;;;;;12.20;11.00;;;15.40;1.40;;;17.00;100.00;95204.42;647488;216;31661;-72
2021/07/04 01:21:45;;;;;;;10.50;9.48;;;15.40;1.40;;;16.97;100.00;95201.63;647245;216;31598;-72
2021/07/04 01:27:04;;;;;;;12.00;10.90;;;15.40;1.40;;;16.99;100.00;95191.15;648565;212;31621;-72
2021/07/04 01:29:45;;;;;;;11.90;10.80;;;15.40;1.40;;;17.03;100.00;95196.25;647288;216;31620;-73
2021/07/04 01:32:27;;;;;;;13.00;11.80;;;15.50;1.40;;;17.04;100.00;95187.09;644944;216;31583;-72
2021/07/04 01:35:51;;;;;;;12.88;11.57;;;15.50;1.40;;;-143.44;100.00;122422.95;650548;216;31942;-73
2021/07/04 01:38:32;;;;;;;12.40;11.30;;;15.50;1.40;;;;;;617278;222;32042;-72
2021/07/04 01:41:13;;;;;;;12.63;11.33;;;15.50;1.40;;;;;;645482;216;31675;-72
2021/07/04 01:43:54;;;;;;;13.60;12.30;;;15.40;1.40;;;;;;649607;216;32132;-72
2021/07/04 01:46:36;;;;;;;13.10;11.90;;;15.40;1.40;;;;;;619008;226;33070;-72
2021/07/04 01:49:17;;;;;;;12.93;11.63;;;15.50;1.40;;;;;;632625;222;31793;-72
2021/07/04 01:51:58;;;;;;;12.30;11.07;;;15.50;1.40;;;;;;646202;212;31812;-72
2021/07/04 01:54:39;;;;;;;12.27;11.07;;;15.50;1.40;;;;;;648324;216;31630;-71
2021/07/04 01:57:20;;;;;;;13.13;11.93;;;15.50;1.40;;;;;;647912;216;31626;-71
2021/07/04 02:00:02;;;;;;;13.00;11.80;;;15.50;1.40;;;;;;647908;212;31606;-72
2021/07/04 02:02:46;;;;;;;13.10;12.00;;;15.50;1.40;;;;;;644901;212;31621;-72
2021/07/04 02:05:27;;;;;;;13.00;11.70;;;15.50;1.40;;;;;;648132;216;31598;-71
2021/07/04 02:08:08;;;;;;;13.13;11.93;;;15.50;1.40;;;;;;647630;216;31605;-72
2021/07/04 02:10:49;;;;;;;12.70;11.60;;;15.50;1.40;;;;;;648616;212;31557;-72
2021/07/04 02:13:30;;;;;;;12.70;11.60;;;15.50;1.40;;;;;;649030;216;31601;-71
2021/07/04 02:16:11;;;;;;;12.70;10.70;;;15.40;1.40;;;;;;619032;226;31987;-72
2021/07/04 02:18:52;;;;;;;11.80;10.70;;;15.50;1.40;;;;;;645202;216;31598;-71
2021/07/04 02:21:34;;;;;;;11.67;10.57;;;15.40;1.40;;;;;;645612;212;31554;-70
2021/07/04 02:24:15;;;;;;;11.18;10.18;;;15.40;1.40;;;;;;646417;216;31739;-71
2021/07/04 02:26:56;;;;;;;11.00;9.90;;;15.40;1.40;;;;;;647167;216;31613;-72
2021/07/04 02:29:37;;;;;;;11.60;10.40;;;15.40;1.40;;;;;;621397;222;32171;-72
2021/07/04 02:32:18;;;;;;;11.38;10.38;;;15.40;1.40;;;;;;647161;216;31766;-72
2021/07/04 02:35:51;;;;;;;12.07;10.93;;;15.40;1.40;;;16.95;100.00;95166.94;646653;212;32197;-71
2021/07/04 02:38:33;;;;;;;11.60;10.50;;;15.40;1.40;;;16.88;100.00;95163.77;649380;212;33082;-71
2021/07/04 02:41:15;;;;;;;11.25;10.25;;;15.30;1.40;;;16.85;100.00;95161.70;649194;212;31645;-72
2021/07/04 02:43:59;;;;;;;11.77;10.68;;;15.30;1.40;;;16.92;100.00;95162.38;648454;216;31979;-72
2021/07/04 02:46:41;;;;;;;11.07;10.18;;;15.30;1.40;;;16.78;100.00;95163.74;650162;212;31600;-72
2021/07/04 02:49:23;;;;;;;12.30;11.10;;;15.20;1.40;;;16.77;100.00;95168.46;644950;216;31618;-71
2021/07/04 02:52:05;;;;;;;11.50;10.50;;;15.20;1.40;;;16.83;100.00;95173.95;646398;216;42233;-72
2021/07/04 02:54:47;;;;;;;11.35;10.35;;;15.20;1.40;;;16.79;100.00;95176.23;619116;226;32660;-71
2021/07/04 02:57:29;;;;;;;11.30;10.30;;;15.20;1.40;;;16.77;100.00;95173.27;646277;216;32002;-71
2021/07/04 03:00:11;;;;;;;11.95;10.85;;;15.20;1.40;;;16.91;100.00;95173.23;648734;212;31618;-72
2021/07/04 03:02:53;;;;;;;11.80;10.80;;;15.20;1.40;;;16.96;100.00;95170.80;647951;212;31581;-72
2021/07/04 03:05:34;;;;;;;11.65;10.55;;;15.20;1.40;;;16.76;100.00;95170.84;644805;212;31621;-72
2021/07/04 03:13:25;;;;;;;11.45;10.23;;;15.20;1.40;;;16.70;100.00;95173.67;621658;222;32051;-71
2021/07/04 03:16:06;;;;;;;11.63;10.43;;;15.20;1.40;;;16.78;100.00;95168.87;646002;216;31584;-72
2021/07/04 03:18:51;;;;;;;11.73;10.70;;;15.20;1.40;;;16.88;100.00;95170.06;646706;216;42805;-72
2021/07/04 03:21:33;;;;;;;11.88;10.82;;;15.20;1.40;;;16.87;100.00;95169.40;618201;226;32679;-72
2021/07/04 03:24:14;;;;;;;10.80;9.70;;;15.20;1.40;;;16.93;100.00;95164.64;648400;212;31671;-72
2021/07/04 03:26:56;;;;;;;11.30;10.30;;;15.20;1.40;;;16.83;100.00;95161.83;647497;212;31653;-71
2021/07/04 03:29:38;;;;;;;11.93;10.82;;;15.20;1.40;;;16.97;100.00;95163.82;644866;216;31920;-72
2021/07/04 03:32:19;;;;;;;11.88;10.77;;;15.20;1.40;;;16.96;100.00;95159.67;646745;212;31783;-72
2021/07/04 03:35:51;;;;;;;11.05;10.05;;;15.20;1.40;;;16.86;100.00;95158.27;648446;216;31887;-72
2021/07/04 03:38:33;;;;;;;11.45;10.35;;;15.20;1.40;;;16.83;100.00;95154.84;647872;216;31648;-72
2021/07/04 03:41:15;;;;;;;11.05;10.05;;;15.20;1.40;;;16.70;100.00;95152.31;645995;212;31577;-72
2021/07/04 03:44:00;;;;;;;11.45;10.25;;;15.10;1.40;;;16.76;100.00;95153.47;648044;212;31588;-72
2021/07/04 03:46:41;;;;;;;11.95;10.85;;;15.20;1.40;;;16.87;100.00;95145.12;617824;226;32018;-72
2021/07/04 03:49:23;;;;;;;12.13;11.02;;;15.20;1.40;;;-143.44;100.00;122422.95;619584;226;31961;-72
2021/07/04 03:52:04;;;;;;;12.37;11.07;;;15.20;1.40;;;;;;646974;212;31619;-72
2021/07/04 03:54:45;;;;;;;12.13;10.93;;;15.30;1.40;;;;;;618937;226;31968;-71
2021/07/04 03:57:28;;;;;;;11.80;10.80;;;15.30;1.40;;;;;;631657;220;31747;-72
2021/07/04 04:00:11;;;;;;;11.43;10.33;;;15.30;1.40;;;;;;646889;216;31718;-72
2021/07/04 04:02:53;;;;;;;11.38;10.38;;;15.30;1.40;;;;;;647013;212;31587;-73
2021/07/04 04:05:34;;;;;;;12.33;11.13;;;15.20;1.40;;;;;;618536;225;33458;-72
2021/07/04 04:08:15;;;;;;;12.33;11.13;;;15.30;1.40;;;;;;645498;216;31623;-71
2021/07/04 04:10:56;;;;;;;12.83;11.57;;;15.30;1.40;;;;;;648962;212;31614;-71
2021/07/04 04:13:37;;;;;;;12.40;11.20;;;15.40;1.40;;;;;;648138;212;31732;-72
2021/07/04 04:16:18;;;;;;;12.30;11.20;;;15.40;1.40;;;;;;619037;223;31955;-72
2021/07/04 04:19:03;;;;;;;12.15;10.95;;;15.50;1.40;;;;;;645820;216;31790;-72
2021/07/04 04:21:44;;;;;;;11.57;10.40;;;15.50;1.40;;;;;;647448;216;31647;-73
2021/07/04 04:24:25;;;;;;;11.03;10.03;;;15.50;1.40;;;;;;645853;212;31581;-72
2021/07/04 04:27:07;;;;;;;11.10;10.10;;;15.50;1.40;;;;;;648410;216;31614;-72
2021/07/04 04:29:48;;;;;;;10.77;9.77;;;15.40;1.40;;;;;;618353;226;31938;-72
2021/07/04 04:38:28;;;;;;;10.90;10.00;;;15.50;1.40;;;16.95;100.00;95156.59;644475;216;31605;-72
2021/07/04 04:41:10;;;;;;;10.82;9.73;;;15.50;1.40;;;16.94;100.00;95152.80;612901;222;32219;-72
2021/07/04 04:43:52;;;;;;;11.52;10.43;;;15.50;1.40;;;17.09;100.00;95151.69;621037;222;32114;-73
2021/07/04 04:46:37;;;;;;;9.80;9.00;;;15.70;1.40;;;17.02;100.00;95155.70;651560;212;22468;-72
2021/07/04 04:49:18;;;;;;;10.90;10.00;;;15.60;1.40;;;16.97;100.00;95154.41;646670;212;32432;-71
2021/07/04 04:52:00;;;;;;;10.90;9.90;;;15.60;1.40;;;17.00;100.00;95153.64;650667;216;31695;-71
2021/07/04 04:54:45;;;;;;;11.00;10.00;;;15.50;1.40;;;16.90;100.00;95151.78;645630;216;31618;-72
2021/07/04 04:57:26;;;;;;;11.80;10.70;;;15.50;1.40;;;16.90;100.00;95153.17;616227;227;31990;-71
2021/07/04 05:00:09;;;;;;;11.55;10.55;;;15.60;1.40;;;16.98;100.00;95148.66;647401;216;31806;-72
2021/07/04 05:02:51;;;;;;;12.00;10.80;;;15.60;1.40;;;17.05;100.00;95146.83;618688;226;31972;-73
2021/07/04 05:05:32;;;;;;;11.20;10.20;;;15.60;1.40;;;17.05;100.00;95140.42;618662;226;32003;-72
2021/07/04 05:08:15;;;;;;;11.88;10.77;;;15.60;1.40;;;17.12;100.00;95140.13;616442;226;32004;-72
2021/07/04 05:10:56;;;;;;;11.70;10.60;;;15.70;1.40;;;17.27;100.00;95138.67;646218;216;31900;-71
2021/07/04 05:13:37;;;;;;;11.32;10.40;;;15.80;1.40;;;17.20;100.00;95137.09;645491;216;31604;-72
2021/07/04 05:16:19;;;;;;;11.25;10.25;;;15.80;1.40;;;17.34;100.00;95138.20;646799;212;31590;-71
2021/07/04 05:19:05;;;;;;;10.95;9.90;;;15.90;1.40;;;17.54;100.00;95141.20;646833;216;31574;-72
2021/07/04 05:21:43;;;;;;;12.00;10.80;;;16.00;1.40;;;17.71;100.00;95138.08;646087;212;31802;-72
2021/07/04 05:24:24;;;;;;;11.90;10.70;;;16.10;1.40;;;17.88;100.00;95135.00;620238;222;31925;-72
2021/07/04 05:27:06;;;;;;;11.85;10.85;;;16.10;1.40;;;17.85;100.00;95135.70;649298;212;31669;-72
2021/07/04 05:29:48;;;;;;;11.63;10.60;;;16.20;1.40;;;17.99;100.00;95142.88;641445;217;31665;-72
2021/07/04 05:32:35;;;;;;;11.15;10.10;;;16.30;1.40;;;18.18;100.00;95135.41;645148;216;31997;-72
2021/07/04 05:35:51;;;;;;;10.88;9.88;;;16.40;1.40;;;17.78;100.00;95133.22;619616;222;31962;-71
2021/07/04 05:38:36;;;;;;;10.73;9.80;;;16.30;1.40;;;18.00;100.00;95128.43;645476;212;31581;-70
2021/07/04 05:41:15;;;;;;;12.57;10.32;;;16.30;1.40;;;-143.44;100.00;122422.95;633740;216;31753;-71
2021/07/04 05:43:56;;;;;;;10.23;9.23;;;16.70;1.40;;;;;;649294;212;31836;-70
2021/07/04 05:46:37;;;;;;;10.57;9.40;;;16.80;1.40;;;;;;647348;212;31949;-70
2021/07/04 05:49:18;;;;;;;9.23;8.43;;;16.70;1.40;;;;;;645928;216;31739;-72
2021/07/04 05:51:59;;;;;;;9.30;8.40;;;16.50;1.40;;;;;;648362;212;32426;-72
2021/07/04 05:54:40;;;;;;;9.40;8.52;;;16.50;1.40;;;;;;645419;216;42187;-71
2021/07/04 05:57:21;;;;;;;8.77;8.02;;;16.70;1.40;;;;;;650428;216;31854;-72
2021/07/04 06:00:02;;;;;;;9.35;8.48;;;16.70;1.40;;;;;;619311;226;32042;-72
2021/07/04 06:02:52;;;;;;;9.47;8.57;;;16.80;1.40;;;;;;645894;216;31730;-73
2021/07/04 06:05:39;;;;;;;10.30;9.40;;;16.60;1.40;;;;;;648823;212;31990;-71
2021/07/04 06:08:20;;;;;;;11.50;10.50;;;16.70;1.40;;;;;;649039;216;31579;-72
2021/07/04 06:11:01;;;;;;;10.45;9.55;;;16.80;1.40;;;;;;649731;216;31610;-72
2021/07/04 06:13:42;;;;;;;10.80;9.90;;;16.70;1.40;;;;;;646438;212;31573;-72
2021/07/04 06:16:24;;;;;;;10.82;9.93;;;16.70;1.40;;;;;;649598;216;31576;-71
2021/07/04 06:19:05;;;;;;;10.30;9.30;;;17.00;1.40;;;;;;646703;216;31583;-72
2021/07/04 06:21:46;;;;;;;10.50;9.60;;;16.90;1.40;;;;;;646931;216;31626;-71
2021/07/04 06:24:27;;;;;;;13.07;9.63;;;16.90;1.40;;;;;;647403;212;31929;-72
2021/07/04 06:27:08;;;;;;;10.10;9.20;;;17.00;1.40;;;;;;648637;212;31656;-71
2021/07/04 06:29:49;;;;;;;9.80;8.90;;;17.10;1.40;;;;;;644877;212;31578;-71
2021/07/04 06:32:33;;;;;;;9.00;8.20;;;17.20;1.40;;;;;;651252;216;31566;-73
2021/07/04 06:35:51;;;;;;;9.05;8.18;;;17.30;1.40;;;19.34;100.00;95124.45;649520;216;31807;-71
2021/07/04 06:38:33;;;;;;;9.05;8.35;;;17.40;1.40;;;19.02;100.00;95120.70;648949;212;31548;-73
2021/07/04 06:41:15;;;;;;;8.23;7.53;;;17.20;1.40;;;18.90;100.00;95118.06;632338;212;31714;-73
2021/07/04 06:44:00;;;;;;;7.20;6.60;;;17.30;1.40;;;18.74;100.00;95119.70;647651;212;31544;-73
2021/07/04 06:46:40;;;;;;;6.70;6.10;;;17.30;1.40;;;18.47;100.00;95113.25;646945;212;31719;-72
2021/07/04 06:49:22;;;;;;;6.62;6.12;;;17.20;1.40;;;18.54;100.00;95113.52;646633;212;31580;-72
2021/07/04 06:52:09;;;;;;;6.30;5.80;;;17.30;1.40;;;18.64;100.00;95112.86;645519;212;31657;-72
2021/07/04 06:57:33;;;;;;;6.22;5.72;;;17.30;1.40;;;18.36;100.00;95109.44;644112;216;32142;-72
2021/07/04 07:00:16;;;;;;;6.50;5.60;;;17.30;1.40;;;18.84;100.00;95109.94;645931;216;32156;-72
2021/07/04 07:02:58;;;;;;;6.28;5.78;;;17.70;1.40;;;19.36;100.00;95110.20;647661;212;31712;-73
2021/07/04 07:05:43;;;;;;;5.70;5.20;;;18.10;1.40;;;19.79;100.00;95112.07;647123;216;31657;-72
2021/07/04 07:08:24;;;;;;;6.00;5.50;;;18.50;1.40;;;19.42;100.00;95112.47;645527;212;32157;-73
2021/07/04 07:11:06;;;;;;;5.60;5.03;;;18.00;1.40;;;19.82;100.00;95113.36;645041;212;31796;-72
2021/07/04 07:13:48;;;;;;;4.40;4.10;;;18.30;1.40;;;19.71;100.00;95113.14;649578;216;31556;-71
2021/07/04 07:16:32;;;;;;;4.07;3.78;;;18.20;1.40;;;20.39;100.00;95104.20;623224;226;31897;-71
2021/07/04 07:19:13;;;;;;;5.05;4.22;;;18.50;1.40;;;20.57;100.00;95103.22;646852;212;31587;-71
2021/07/04 07:21:55;;;;;;;4.12;3.83;;;18.70;1.40;;;21.25;100.00;95104.19;648410;212;31558;-71
2021/07/04 07:24:37;;;;;;;4.28;3.87;;;19.30;1.40;;;21.34;99.37;95105.94;648343;212;31572;-72
2021/07/04 07:27:20;;;;;;;3.60;3.30;;;18.90;1.40;;;20.77;99.06;95105.92;645226;216;32112;-72
2021/07/04 07:30:07;;;;;;;3.70;3.40;;;18.60;1.40;;;21.20;93.13;95098.89;644831;212;31565;-72
2021/07/04 07:32:48;;;;;;;3.35;3.05;;;19.00;1.40;;;21.18;92.08;95093.10;647767;216;31552;-71
2021/07/04 07:35:56;;;;;;;3.50;3.20;;;18.90;1.40;;;20.94;96.83;95084.67;646499;216;31570;-71
2021/07/04 07:41:12;;;;;;;3.47;3.17;;;19.30;1.40;;;22.54;97.42;95076.28;634944;216;42420;-71
2021/07/04 07:43:53;;;;;;;2.90;2.70;;;20.20;1.40;;;22.32;85.62;95082.09;617889;222;42784;-71
2021/07/04 07:46:35;;;;;;;2.10;2.00;;;19.90;1.40;;;21.59;83.81;95083.09;620569;222;31896;-71
2021/07/04 07:49:17;;;;;;;2.70;2.50;;;19.10;1.40;;;21.30;86.80;95084.98;648468;216;31541;-71
2021/07/04 07:51:59;;;;;;;3.20;2.90;;;18.70;1.40;;;20.75;95.60;95083.25;647316;212;31709;-71
2021/07/04 07:54:40;;;;;;;3.20;3.00;;;18.30;1.40;;;20.66;91.67;95084.86;646137;216;31578;-70
2021/07/04 07:57:22;;;;;;;3.10;2.80;;;18.20;1.40;;;19.99;93.35;95084.95;620968;226;42715;-72
2021/07/04 08:00:04;;;;;;;2.70;2.50;;;18.10;1.40;;;20.61;93.98;95085.14;646225;212;31587;-70
2021/07/04 08:02:45;;;;;;;2.90;2.70;;;18.50;1.40;;;21.18;92.46;95084.70;646492;212;31553;-70
2021/07/04 08:05:27;;;;;;;3.15;2.87;;;18.90;1.40;;;21.17;89.66;95086.00;651422;212;31579;-71
2021/07/04 08:08:08;;;;;;;3.00;2.80;;;18.90;1.40;;;21.02;92.49;95084.55;647698;216;31728;-71
2021/07/04 08:10:50;;;;;;;3.00;2.60;;;18.70;1.40;;;20.94;93.26;95077.96;649496;212;31544;-72
2021/07/04 08:13:35;;;;;;;2.90;2.70;;;18.80;1.40;;;-143.44;100.00;122422.95;646506;212;31551;-71
2021/07/04 08:16:16;;;;;;;2.72;2.47;;;18.80;1.40;;;;;;650672;212;31625;-71
2021/07/04 08:18:57;;;;;;;3.00;2.80;;;18.60;1.40;;;;;;648905;216;31681;-70
2021/07/04 08:21:38;;;;;;;2.75;2.55;;;19.00;1.40;;;;;;646982;212;31553;-70
2021/07/04 08:24:19;;;;;;;2.70;2.50;;;19.70;1.40;;;;;;619701;226;32039;-71
2021/07/04 08:27:00;;;;;;;1.70;1.60;;;20.60;1.40;;;;;;648378;212;42178;-70
2021/07/04 08:29:41;;;;;;;11.50;10.30;;;20.20;1.40;;;;;;646438;216;42506;-70
2021/07/04 08:32:22;;;;;;;2.50;2.30;;;20.10;1.40;;;;;;648211;212;42167;-71
2021/07/04 08:35:51;;;;;;;2.30;2.10;;;20.20;1.40;;;23.14;79.65;95036.61;648109;213;32145;-70
2021/07/04 08:38:33;;;;;;;2.00;1.90;;;20.60;1.40;;;23.53;77.92;95032.73;648427;212;31617;-71
2021/07/04 08:41:15;;;;;;;2.08;1.95;;;20.70;1.40;;;-143.44;100.00;122422.95;636610;216;31836;-70
2021/07/04 08:43:56;;;;;;;1.60;1.50;;;20.80;1.40;;;;;;619754;222;32271;-71
2021/07/04 08:46:39;;;;;;;1.50;1.40;;;20.70;1.40;;;;;;645442;212;31554;-71
2021/07/04 08:49:20;;;;;;;1.40;1.30;;;20.60;1.40;;;;;;646588;212;31558;-72
2021/07/04 08:54:48;;;;;;;2.20;2.10;;;20.50;1.40;;;;;;648052;216;31686;-71
2021/07/04 08:57:29;;;;;;;2.00;1.90;;;20.20;1.40;;;;;;644373;215;31721;-72
2021/07/04 09:00:11;;;;;;;2.20;2.00;;;20.20;1.40;;;;;;646461;216;31730;-71
2021/07/04 09:02:55;;;;;;;2.10;1.83;;;20.10;1.40;;;;;;619521;226;42711;-71
2021/07/04 09:05:42;;;;;;;3.25;1.77;;;20.60;1.40;;;;;;617595;222;31928;-70
2021/07/04 09:08:23;;;;;;;2.10;1.90;;;21.30;1.40;;;;;;647798;216;42179;-71
2021/07/04 09:11:10;;;;;;;1.80;1.70;;;21.50;1.40;;;;;;647681;212;31759;-70
2021/07/04 09:13:50;;;;;;;2.20;2.00;;;21.10;1.40;;;;;;644657;216;31575;-72
2021/07/04 09:16:31;;;;;;;1.98;1.87;;;21.30;1.40;;;;;;650410;212;31561;-72
2021/07/04 09:19:15;;;;;;;2.10;2.00;;;21.80;1.40;;;;;;646858;212;32069;-71
2021/07/04 09:22:09;;;;;;;5.07;4.60;;;22.90;1.40;;;;;;646338;216;31675;-72
2021/07/04 09:24:50;;;;;;;1.60;1.40;;;23.20;1.40;;;;;;645417;216;31815;-71
2021/07/04 09:27:31;;;;;;;1.60;1.50;;;22.80;1.40;;;;;;647920;212;42268;-72
2021/07/04 09:32:47;;;;;;;1.87;1.70;;;22.90;1.40;;;;;;647268;212;31500;-71
2021/07/04 09:36:01;;;;;;;1.77;1.37;;;23.80;1.40;;;28.22;58.09;95010.45;645391;216;31753;-72
2021/07/04 09:38:43;;;;;;;2.30;1.80;;;26.40;1.40;;;29.31;56.81;94999.97;649736;216;32394;-71
2021/07/04 09:41:24;;;;;;;2.00;1.80;;;26.70;1.40;;;28.93;50.73;95007.16;647653;212;31578;-73
2021/07/04 09:44:06;;;;;;;1.50;1.40;;;25.50;1.40;;;28.71;56.02;95001.23;647222;212;31800;-72
2021/07/04 09:46:47;;;;;;;2.15;1.30;;;25.00;1.40;;;29.54;51.37;95005.71;645224;216;31544;-71
2021/07/04 09:49:29;;;;;;;1.70;1.55;;;24.80;1.40;;;28.87;51.15;95006.87;646075;216;31763;-72
2021/07/04 09:52:17;;;;;;;1.60;1.50;;;24.50;1.40;;;28.75;53.84;95007.58;646368;212;31547;-72
2021/07/04 09:55:00;;;;;;;1.80;1.70;;;24.20;1.40;;;28.45;51.35;95013.53;620925;226;32563;-72
2021/07/04 09:57:53;;;;;;;1.80;1.70;;;23.70;1.40;;;28.29;50.67;95003.86;649316;212;31859;-71
2021/07/04 10:00:37;;;;;;;1.90;1.70;;;23.90;1.40;;;28.40;53.82;95000.98;622914;222;31877;-71
2021/07/04 10:03:19;;;;;;;2.50;2.30;;;23.70;1.40;;;28.58;54.12;94997.50;647617;212;31607;-71
2021/07/04 10:06:01;;;;;;;1.90;1.80;;;23.70;1.40;;;28.29;55.55;94989.95;649004;212;31554;-71
2021/07/04 10:08:43;;;;;;;2.00;1.80;;;23.70;1.40;;;27.78;53.30;94989.75;619407;222;32505;-72
2021/07/04 10:11:26;;;;;;;2.00;1.90;;;23.50;1.40;;;27.00;54.39;94989.05;647024;212;31781;-72
2021/07/04 10:14:11;;;;;;;1.90;1.80;;;23.20;1.40;;;26.10;57.48;94983.55;649179;216;32689;-71
2021/07/04 10:16:54;;;;;;;2.25;2.10;;;22.90;1.40;;;28.27;54.32;94973.94;645054;212;31561;-72
2021/07/04 10:19:36;;;;;;;1.80;1.70;;;25.20;1.40;;;29.90;51.14;94960.91;618763;222;31974;-71
2021/07/04 10:22:17;;;;;;;2.00;1.90;;;26.80;1.40;;;31.10;48.94;94956.48;616492;226;32515;-72
2021/07/04 10:24:59;;;;;;;1.92;1.83;;;27.10;1.40;;;33.67;45.03;94943.78;645664;216;32081;-71
2021/07/04 10:27:44;;;;;;;1.80;1.70;;;29.00;1.40;;;34.56;40.79;94935.91;649086;212;31644;-74
2021/07/04 10:30:25;;;;;;;2.05;1.90;;;29.20;1.40;;;35.84;40.56;94927.64;647235;216;31560;-73
2021/07/04 10:36:00;;;;;;;2.00;1.80;;;27.90;1.40;;;34.69;40.61;94929.66;645749;216;31727;-73
2021/07/04 10:38:59;;;;;;;1.92;1.77;;;27.70;1.40;;;34.05;40.19;94924.52;650916;212;31603;-72
2021/07/04 10:41:40;;;;;;;2.10;1.90;;;26.90;1.40;;;32.15;42.52;94930.41;646874;216;31539;-72
2021/07/04 10:44:40;;;;;;;1.92;1.83;;;25.70;1.40;;;30.63;46.99;94929.40;649087;212;31903;-72
2021/07/04 10:47:25;;;;;;;1.62;1.52;;;25.00;1.40;;;29.48;47.57;94937.38;646611;212;32217;-72
2021/07/04 10:52:49;;;;;;;1.90;1.80;;;23.70;1.40;;;27.36;51.55;94931.19;647539;216;31590;-73
2021/07/04 10:55:32;;;;;;;1.90;1.70;;;23.40;1.40;;;27.66;51.43;94926.22;646902;212;31531;-72
2021/07/04 10:58:14;;;;;;;2.30;1.87;;;23.20;1.40;;;27.25;52.19;94927.61;646618;216;32122;-72
2021/07/04 11:00:55;;;;;;;1.80;1.70;;;22.90;1.40;;;26.39;53.27;94926.33;647691;212;31533;-71
2021/07/04 11:03:37;;;;;;;1.70;1.60;;;22.50;1.40;;;26.64;53.76;94923.17;620484;222;32063;-71
2021/07/04 11:06:19;;;;;;;2.00;1.80;;;23.00;1.40;;;26.93;53.21;94923.29;645062;212;31681;-70
2021/07/04 11:09:00;;;;;;;2.10;1.80;;;23.30;1.40;;;26.84;53.40;94928.27;619001;222;32057;-71
2021/07/04 11:11:44;;;;;;;2.37;2.17;;;23.70;1.40;;;26.23;54.72;94917.59;618170;226;31910;-73
2021/07/04 11:14:32;;;;;;;1.90;1.80;;;23.40;1.40;;;26.46;54.43;94919.75;620406;222;31916;-71
2021/07/04 11:17:14;;;;;;;1.87;1.77;;;22.90;1.40;;;25.53;57.09;94917.04;647845;216;32106;-71
2021/07/04 11:20:05;;;;;;;1.90;1.80;;;22.80;1.40;;;25.74;57.52;94913.41;647442;212;31952;-71
2021/07/04 11:22:58;;;;;;;1.92;1.83;;;23.30;1.40;;;27.86;54.46;94895.84;646738;216;31653;-71
2021/07/04 11:25:40;;;;;;;2.00;1.90;;;25.20;1.40;;;29.92;51.82;94893.78;646184;216;31578;-72
2021/07/04 11:28:22;;;;;;;2.20;2.00;;;25.40;1.40;;;29.38;50.70;94893.34;646865;212;32102;-72
2021/07/04 11:31:26;;;;;;;2.20;1.90;;;24.80;1.40;;;27.92;51.02;94905.02;650041;212;31721;-72
2021/07/04 11:35:51;;;;;;;1.83;1.70;;;24.40;1.40;;;29.45;49.17;94901.30;646051;216;33559;-71
2021/07/04 11:38:38;;;;;;;2.10;1.90;;;25.90;1.40;;;29.35;47.78;94900.70;646719;212;31591;-72
2021/07/04 11:41:26;;;;;;;2.05;1.95;;;25.50;1.40;;;31.17;46.49;94897.66;648169;216;31541;-72
2021/07/04 11:44:09;;;;;;;2.20;2.00;;;26.80;1.40;;;31.93;45.03;94891.94;647288;212;31732;-72
2021/07/04 11:46:51;;;;;;;1.90;1.80;;;26.20;1.40;;;31.51;45.29;94887.23;645898;216;32101;-71
2021/07/04 11:49:32;;;;;;;2.22;1.85;;;26.40;1.40;;;31.87;42.89;94882.86;646499;212;32091;-71
2021/07/04 11:52:19;;;;;;;1.90;1.80;;;26.00;1.40;;;31.11;47.11;94876.53;645619;212;32190;-72
2021/07/04 11:55:04;;;;;;;1.90;1.70;;;25.60;1.40;;;32.36;45.18;94870.56;645105;212;32151;-71
2021/07/04 11:57:43;;;;;;;2.03;1.70;;;26.50;1.40;;;33.03;42.00;94862.48;620303;222;31971;-71
2021/07/04 12:00:30;;;;;;;2.28;2.17;;;27.00;1.40;;;33.07;42.21;94860.33;645601;212;31683;-72
2021/07/04 12:03:12;;;;;;;1.90;1.80;;;26.60;1.40;;;32.71;43.34;94856.41;645618;212;32270;-72
2021/07/04 12:05:53;;;;;;;2.50;2.00;;;26.70;1.40;;;33.34;42.86;94846.23;648059;212;32191;-72
2021/07/04 12:08:49;;;;;;;2.00;1.90;;;26.40;1.40;;;30.74;43.39;94841.59;646479;212;42242;-72
2021/07/04 12:11:47;;;;;;;2.12;1.90;;;25.10;1.40;;;30.85;46.75;94840.64;620971;225;31851;-72
2021/07/04 12:14:32;;;;;;;1.85;1.75;;;25.40;1.40;;;32.70;43.66;94834.14;617748;222;31868;-72
2021/07/04 12:17:31;;;;;;;1.87;1.77;;;26.20;1.40;;;31.86;43.57;94840.42;645032;216;31597;-73
2021/07/04 12:22:58;;;;;;;3.30;3.00;;;24.90;1.40;;;28.52;48.44;94848.27;628743;221;31708;-75
2021/07/04 12:25:43;;;;;;;2.00;1.90;;;24.00;1.40;;;29.68;47.22;94842.32;643282;216;31660;-72
2021/07/04 12:28:29;;;;;;;2.33;2.12;;;24.60;1.40;;;29.94;46.13;94839.09;648568;212;31699;-72
2021/07/04 12:31:15;;;;;;;2.10;1.90;;;25.00;1.40;;;30.81;46.87;94833.63;647047;212;31842;-74
2021/07/04 12:35:55;;;;;;;2.75;1.90;;;25.00;1.40;;;28.36;49.13;94816.95;643860;218;31574;-73
2021/07/04 12:38:40;;;;;;;1.87;1.65;;;24.30;1.40;;;27.54;51.12;94808.45;647980;212;31604;-72
2021/07/04 12:41:22;;;;;;;2.50;2.30;;;23.80;1.40;;;28.09;51.52;94803.03;648539;216;31645;-72
2021/07/04 12:44:13;;;;;;;2.42;2.22;;;23.90;1.40;;;27.94;50.99;94799.73;644418;212;31558;-73
2021/07/04 12:46:57;;;;;;;1.75;1.65;;;23.80;1.40;;;27.92;50.71;94800.41;647490;216;31828;-72
2021/07/04 12:49:46;;;;;;;2.00;1.90;;;23.70;1.40;;;26.61;53.76;94796.19;649654;212;42192;-73
2021/07/04 12:52:26;;;;;;;2.17;1.98;;;23.20;1.40;;;27.56;54.58;94791.48;647087;216;31522;-72